createdAt,value
2022-11-02T00:00:35.442Z,18.6
2022-11-02T00:05:27.725Z,18.6
2022-11-02T00:10:34.292Z,18.6
2022-11-02T00:15:41.207Z,18.6
2022-11-02T00:21:17.820Z,18.6
2022-11-02T00:26:39.731Z,18.6
2022-11-02T00:31:48.071Z,18.6
2022-11-02T00:37:29.249Z,18.6
2022-11-02T00:43:06.658Z,18.6
2022-11-02T00:48:28.787Z,18.6
2022-11-02T00:54:05.999Z,18.6
2022-11-02T00:59:48.540Z,18.6
2022-11-02T01:05:26.870Z,18.6
2022-11-02T01:11:05.977Z,18.6
2022-11-02T01:16:27.769Z,18.6
2022-11-02T01:21:49.781Z,18.6
2022-11-02T01:27:11.388Z,18.6
2022-11-02T01:32:49.145Z,18.5
2022-11-02T01:38:10.784Z,18.5
2022-11-02T01:43:32.329Z,18.5
2022-11-02T01:48:55.068Z,18.5
2022-11-02T01:54:16.810Z,18.5
2022-11-02T01:58:52.990Z,18.5
2022-11-02T02:03:42.718Z,18.5
2022-11-02T02:09:03.117Z,18.5
2022-11-02T02:14:24.720Z,18.5
2022-11-02T02:19:36.383Z,18.5
2022-11-02T02:24:26.310Z,18.5
2022-11-02T02:29:32.718Z,18.5
2022-11-02T02:34:54.561Z,18.4
2022-11-02T02:40:16.405Z,18.5
2022-11-02T02:45:38.612Z,18.4
2022-11-02T02:51:01.034Z,18.5
2022-11-02T02:56:21.966Z,18.5
2022-11-02T03:02:00.359Z,18.4
2022-11-02T03:07:07.321Z,18.4
2022-11-02T03:12:43.411Z,18.4
2022-11-02T03:18:06.199Z,18.4
2022-11-02T03:23:27.843Z,18.4
2022-11-02T03:28:49.803Z,18.4
2022-11-02T03:33:56.477Z,18.4
2022-11-02T03:38:46.644Z,18.4
2022-11-02T03:44:08.068Z,18.4
2022-11-02T03:49:14.771Z,18.4
2022-11-02T03:54:36.074Z,18.4
2022-11-02T03:59:57.125Z,18.4
2022-11-02T04:05:04.818Z,18.4
2022-11-02T04:10:28.619Z,18.4
2022-11-02T04:15:49.569Z,18.4
2022-11-02T04:20:59.533Z,18.4
2022-11-02T04:26:20.630Z,18.3
2022-11-02T04:31:57.351Z,18.3
2022-11-02T04:37:35.150Z,18.3
2022-11-02T04:43:13.077Z,18.3
2022-11-02T04:48:38.216Z,18.3
2022-11-02T04:54:03.376Z,18.3
2022-11-02T04:59:10.292Z,18.3
2022-11-02T05:04:36.889Z,18.3
2022-11-02T05:10:20.602Z,18.3
2022-11-02T05:15:57.382Z,18.3
2022-11-02T05:21:39.848Z,18.3
2022-11-02T05:27:07.231Z,18.3
2022-11-02T05:32:45.112Z,18.3
2022-11-02T05:38:23.049Z,18.2
2022-11-02T05:44:03.511Z,18.2
2022-11-02T05:49:40.573Z,18.2
2022-11-02T05:55:03.385Z,18.2
2022-11-02T06:00:25.914Z,18.2
2022-11-02T06:05:35.704Z,18.2
2022-11-02T06:10:47.424Z,18.2
2022-11-02T06:16:09.933Z,18.2
2022-11-02T06:21:31.252Z,18.2
2022-11-02T06:26:53.502Z,18.2
2022-11-02T06:32:16.944Z,18.2
2022-11-02T06:37:39.472Z,18.3
2022-11-02T06:43:40.429Z,18.3
2022-11-02T06:49:24.888Z,18.3
2022-11-02T06:54:47.896Z,18.3
2022-11-02T06:59:55.026Z,18.3
2022-11-02T07:05:19.141Z,18.3
2022-11-02T07:10:29.423Z,18.3
2022-11-02T07:16:07.485Z,18.3
2022-11-02T07:21:31.398Z,18.3
2022-11-02T07:27:08.880Z,18.3
2022-11-02T07:32:31.347Z,18.3
2022-11-02T07:38:14.928Z,18.3
2022-11-02T07:43:57.491Z,18.3
2022-11-02T07:49:38.993Z,18.3
2022-11-02T07:55:18.588Z,18.3
2022-11-02T08:00:41.315Z,18.3
2022-11-02T08:06:08.613Z,18.3
2022-11-02T08:11:30.998Z,18.3
2022-11-02T08:16:53.494Z,18.3
2022-11-02T08:22:16.182Z,18.3
2022-11-02T08:27:44.519Z,18.3
2022-11-02T08:32:36.243Z,18.3
2022-11-02T08:38:03.703Z,18.3
2022-11-02T08:43:32.932Z,18.3
2022-11-02T08:49:36.472Z,18.3
2022-11-02T08:54:58.834Z,18.3
2022-11-02T09:00:20.765Z,18.3
2022-11-02T09:05:43.607Z,18.3
2022-11-02T09:11:09.252Z,18.3
2022-11-02T09:16:48.347Z,18.3
2022-11-02T09:22:11.018Z,18.4
2022-11-02T09:27:33.164Z,18.4
2022-11-02T09:33:05.897Z,18.4
2022-11-02T09:38:43.715Z,18.4
2022-11-02T09:44:23.400Z,18.4
2022-11-02T09:50:37.829Z,18.3
2022-11-02T09:56:19.206Z,18.4
2022-11-02T10:01:41.725Z,18.4
2022-11-02T10:07:04.612Z,18.4
2022-11-02T10:12:15.942Z,18.3
2022-11-02T10:17:38.618Z,18.4
2022-11-02T10:23:00.772Z,18.4
2022-11-02T10:28:38.645Z,18.4
2022-11-02T10:34:03.107Z,18.4
2022-11-02T10:40:44.162Z,18.4
2022-11-02T10:46:06.585Z,18.6
2022-11-02T10:51:35.189Z,18.8
2022-11-02T11:03:01.756Z,18.9
2022-11-02T11:08:24.543Z,18.8
2022-11-02T11:16:18.585Z,18.8
2022-11-02T11:23:21.894Z,19.4
2022-11-02T11:29:03.421Z,19.7
2022-11-02T11:34:59.755Z,20.3
2022-11-02T11:40:29.054Z,20.3
2022-11-02T11:45:04.905Z,20.4
2022-11-02T11:50:47.082Z,20.4
2022-11-02T11:55:43.965Z,20.8
2022-11-02T12:00:51.109Z,20.6
2022-11-02T12:06:04.466Z,20.6
2022-11-02T12:11:36.539Z,20.8
2022-11-02T12:17:03.173Z,20.9
2022-11-02T12:22:25.434Z,21.1
2022-11-02T12:27:32.485Z,21.1
2022-11-02T12:32:54.238Z,21.2
2022-11-02T12:39:23.022Z,21.2
2022-11-02T12:44:46.343Z,21.4
2022-11-02T12:50:10.169Z,21.3
2022-11-02T12:55:17.598Z,21.3
2022-11-02T13:00:29.346Z,21.3
2022-11-02T13:05:56.197Z,20.9
2022-11-02T13:11:21.938Z,21
2022-11-02T13:16:35.167Z,21.1
2022-11-02T13:22:01.814Z,21.1
2022-11-02T13:27:35.666Z,21
2022-11-02T13:33:08.225Z,20.8
2022-11-02T13:38:15.462Z,20.9
2022-11-02T13:43:23.046Z,21.1
2022-11-02T13:48:44.651Z,21.3
2022-11-02T13:59:42.144Z,21.2
2022-11-02T14:05:25.565Z,21.3
2022-11-02T14:11:03.759Z,21.1
2022-11-02T14:16:41.858Z,21.2
2022-11-02T14:22:24.123Z,21.3
2022-11-02T14:28:07.213Z,21.2
2022-11-02T14:33:44.514Z,21.1
2022-11-02T14:39:21.294Z,20.9
2022-11-02T14:45:01.850Z,20.8
2022-11-02T14:50:40.698Z,20.6
2022-11-02T14:56:04.084Z,20.4
2022-11-02T15:01:15.167Z,20.4
2022-11-02T15:06:57.536Z,20.3
2022-11-02T15:12:35.506Z,20.2
2022-11-02T15:18:17.079Z,20.1
2022-11-02T15:24:05.821Z,20
2022-11-02T15:29:30.801Z,19.9
2022-11-02T15:35:30.494Z,19.8
2022-11-02T15:41:42.459Z,19.8
2022-11-02T15:47:33.849Z,19.7
2022-11-02T15:53:23.909Z,19.6
2022-11-02T15:58:46.431Z,19.6
2022-11-02T16:04:28.363Z,19.5
2022-11-02T16:10:19.941Z,19.4
2022-11-02T16:16:21.830Z,19.4
2022-11-02T16:22:01.437Z,19.4
2022-11-02T16:27:23.594Z,19.4
2022-11-02T16:33:09.788Z,19.4
2022-11-02T16:38:50.308Z,19.3
2022-11-02T16:44:03.794Z,19.3
2022-11-02T16:49:42.180Z,19.2
2022-11-02T16:55:22.339Z,19.2
2022-11-02T17:01:03.138Z,19.2
2022-11-02T17:06:30.532Z,19.1
2022-11-02T17:12:08.095Z,19.1
2022-11-02T17:17:52.063Z,19.1
2022-11-02T17:23:30.537Z,19.1
2022-11-02T17:28:37.505Z,19.1
2022-11-02T17:34:15.045Z,19.1
2022-11-02T17:39:58.171Z,19.1
2022-11-02T17:44:49.005Z,19
2022-11-02T17:50:12.422Z,19
2022-11-02T17:55:35.029Z,19
2022-11-02T18:00:41.682Z,19
2022-11-02T18:06:24.257Z,18.9
2022-11-02T18:12:02.965Z,18.9
2022-11-02T18:17:40.050Z,18.9
2022-11-02T18:23:17.374Z,18.9
2022-11-02T18:28:48.153Z,18.9
2022-11-02T18:34:26.035Z,18.9
2022-11-02T18:40:04.301Z,18.9
2022-11-02T18:45:30.650Z,18.9
2022-11-02T18:51:08.236Z,18.9
2022-11-02T18:56:37.500Z,18.9
2022-11-02T19:02:18.992Z,18.9
2022-11-02T19:08:03.317Z,18.8
2022-11-02T19:13:29.785Z,18.8
2022-11-02T19:18:51.713Z,18.9
2022-11-02T19:24:34.677Z,18.9
2022-11-02T19:30:13.469Z,18.8
2022-11-02T19:35:51.934Z,18.8
2022-11-02T19:41:32.344Z,18.8
2022-11-02T19:47:12.169Z,18.8
2022-11-02T19:52:53.516Z,18.8
2022-11-02T19:58:30.908Z,18.8
2022-11-02T20:03:53.556Z,18.8
2022-11-02T20:09:31.262Z,18.8
2022-11-02T20:14:53.708Z,18.8
2022-11-02T20:21:07.062Z,18.8
2022-11-02T20:26:51.326Z,18.8
2022-11-02T20:32:02.516Z,18.8
2022-11-02T20:37:43.220Z,18.8
2022-11-02T20:43:25.693Z,18.8
2022-11-02T20:50:10.161Z,18.8
2022-11-02T20:55:33.431Z,18.8
2022-11-02T21:01:11.392Z,18.8
2022-11-02T21:06:51.076Z,18.8
2022-11-02T21:12:31.561Z,18.8
2022-11-02T21:18:09.906Z,18.8
2022-11-02T21:24:00.218Z,18.8
2022-11-02T21:29:37.575Z,18.8
2022-11-02T21:35:16.245Z,18.8
2022-11-02T21:40:38.342Z,18.9
2022-11-02T21:46:17.060Z,18.9
2022-11-02T21:51:54.287Z,18.9
2022-11-02T21:57:32.524Z,18.9
2022-11-02T22:03:17.896Z,18.9
2022-11-02T22:08:45.351Z,18.9
2022-11-02T22:14:22.120Z,18.9
2022-11-02T22:20:28.981Z,18.9
2022-11-02T22:26:08.283Z,19
2022-11-02T22:31:45.099Z,18.9
2022-11-02T22:37:07.119Z,18.9
2022-11-02T22:42:45.044Z,18.9
2022-11-02T22:48:22.703Z,18.9
2022-11-02T22:53:49.272Z,18.9
2022-11-02T22:59:11.409Z,19
2022-11-02T23:04:34.475Z,19
2022-11-02T23:10:11.786Z,19
2022-11-02T23:15:34.382Z,19
2022-11-02T23:20:59.081Z,18.9
2022-11-02T23:26:21.152Z,19
2022-11-02T23:31:58.721Z,18.9
2022-11-02T23:37:05.586Z,19
2022-11-02T23:42:43.238Z,19
2022-11-02T23:48:05.130Z,19
2022-11-02T23:53:42.203Z,19
2022-11-02T23:59:18.903Z,19
